sensor_id;sensor_type;location;lat;lon;timestamp;P1;P2;P0
62631;PMS5003;48703;51.248;-0.546;2022-12-20T00:01:44;3.21;3.21;
62631;PMS5003;48703;51.248;-0.546;2022-12-20T00:04:45;2.83;2.19;
62631;PMS5003;48703;51.248;-0.546;2022-12-20T00:07:47;4.37;3.77;
62631;PMS5003;48703;51.248;-0.546;2022-12-20T00:10:48;5.16;3.93;
62631;PMS5003;48703;51.248;-0.546;2022-12-20T00:13:50;3.51;2.31;
62631;PMS5003;48703;51.248;-0.546;2022-12-20T00:16:52;4.03;2.94;
62631;PMS5003;48703;51.248;-0.546;2022-12-20T00:19:53;4.90;3.53;
62631;PMS5003;48703;51.248;-0.546;2022-12-20T00:22:55;2.71;2.71;
62631;PMS5003;48703;51.248;-0.546;2022-12-20T00:26:00;5.04;3.77;
62631;PMS5003;48703;51.248;-0.546;2022-12-20T00:28:58;2.49;2.07;
62631;PMS5003;48703;51.248;-0.546;2022-12-20T00:31:59;3.23;2.80;
62631;PMS5003;48703;51.248;-0.546;2022-12-20T00:35:00;2.51;2.24;
62631;PMS5003;48703;51.248;-0.546;2022-12-20T00:38:02;3.26;2.37;
62631;PMS5003;48703;51.248;-0.546;2022-12-20T00:41:04;3.46;1.89;
62631;PMS5003;48703;51.248;-0.546;2022-12-20T00:44:05;2.69;2.33;
62631;PMS5003;48703;51.248;-0.546;2022-12-20T00:47:07;1.71;1.71;
62631;PMS5003;48703;51.248;-0.546;2022-12-20T00:50:08;3.77;2.57;
62631;PMS5003;48703;51.248;-0.546;2022-12-20T00:53:10;2.26;2.00;
62631;PMS5003;48703;51.248;-0.546;2022-12-20T00:56:11;3.04;2.57;
62631;PMS5003;48703;51.248;-0.546;2022-12-20T00:59:13;3.24;2.39;
62631;PMS5003;48703;51.248;-0.546;2022-12-20T01:02:14;3.73;2.43;
62631;PMS5003;48703;51.248;-0.546;2022-12-20T01:05:16;2.54;2.54;
62631;PMS5003;48703;51.248;-0.546;2022-12-20T01:08:17;3.47;2.83;
62631;PMS5003;48703;51.248;-0.546;2022-12-20T01:11:19;3.41;2.81;
62631;PMS5003;48703;51.248;-0.546;2022-12-20T01:14:21;3.51;2.61;
62631;PMS5003;48703;51.248;-0.546;2022-12-20T01:17:22;3.27;2.54;
62631;PMS5003;48703;51.248;-0.546;2022-12-20T01:20:24;2.81;2.51;
62631;PMS5003;48703;51.248;-0.546;2022-12-20T01:23:25;3.01;2.71;
62631;PMS5003;48703;51.248;-0.546;2022-12-20T01:26:27;3.46;2.93;
62631;PMS5003;48703;51.248;-0.546;2022-12-20T01:29:28;3.83;2.61;
62631;PMS5003;48703;51.248;-0.546;2022-12-20T01:32:30;2.81;2.49;
62631;PMS5003;48703;51.248;-0.546;2022-12-20T01:35:31;3.06;2.96;
62631;PMS5003;48703;51.248;-0.546;2022-12-20T01:38:33;3.27;2.49;
62631;PMS5003;48703;51.248;-0.546;2022-12-20T01:41:35;4.04;2.97;
62631;PMS5003;48703;51.248;-0.546;2022-12-20T01:44:54;4.59;3.60;
62631;PMS5003;48703;51.248;-0.546;2022-12-20T01:47:37;3.20;2.47;
62631;PMS5003;48703;51.248;-0.546;2022-12-20T01:50:39;3.01;2.59;
62631;PMS5003;48703;51.248;-0.546;2022-12-20T01:53:41;1.39;1.19;
62631;PMS5003;48703;51.248;-0.546;2022-12-20T01:56:43;3.07;2.69;
62631;PMS5003;48703;51.248;-0.546;2022-12-20T01:59:44;2.53;2.17;
62631;PMS5003;48703;51.248;-0.546;2022-12-20T02:02:46;2.13;1.70;
62631;PMS5003;48703;51.248;-0.546;2022-12-20T02:05:47;2.91;2.60;
62631;PMS5003;48703;51.248;-0.546;2022-12-20T02:08:48;2.91;2.70;
62631;PMS5003;48703;51.248;-0.546;2022-12-20T02:11:55;3.71;2.29;
62631;PMS5003;48703;51.248;-0.546;2022-12-20T02:14:56;3.97;2.73;
62631;PMS5003;48703;51.248;-0.546;2022-12-20T02:17:55;3.44;3.19;
62631;PMS5003;48703;51.248;-0.546;2022-12-20T02:20:58;4.07;3.49;
62631;PMS5003;48703;51.248;-0.546;2022-12-20T02:25:05;3.29;3.29;
62631;PMS5003;48703;51.248;-0.546;2022-12-20T02:27:06;5.47;4.74;
62631;PMS5003;48703;51.248;-0.546;2022-12-20T02:30:00;4.43;3.77;
62631;PMS5003;48703;51.248;-0.546;2022-12-20T02:33:01;3.56;2.91;
62631;PMS5003;48703;51.248;-0.546;2022-12-20T02:36:02;4.90;4.30;
62631;PMS5003;48703;51.248;-0.546;2022-12-20T02:39:04;3.99;3.21;
62631;PMS5003;48703;51.248;-0.546;2022-12-20T02:42:05;5.59;4.07;
62631;PMS5003;48703;51.248;-0.546;2022-12-20T02:45:07;4.66;3.79;
62631;PMS5003;48703;51.248;-0.546;2022-12-20T02:48:08;5.16;4.00;
62631;PMS5003;48703;51.248;-0.546;2022-12-20T02:51:09;5.97;5.33;
62631;PMS5003;48703;51.248;-0.546;2022-12-20T02:54:11;5.73;5.51;
62631;PMS5003;48703;51.248;-0.546;2022-12-20T02:57:13;5.63;4.89;
62631;PMS5003;48703;51.248;-0.546;2022-12-20T03:00:14;5.10;4.27;
62631;PMS5003;48703;51.248;-0.546;2022-12-20T03:03:15;5.69;4.51;
62631;PMS5003;48703;51.248;-0.546;2022-12-20T03:06:17;5.84;4.80;
62631;PMS5003;48703;51.248;-0.546;2022-12-20T03:09:18;5.59;4.50;
62631;PMS5003;48703;51.248;-0.546;2022-12-20T03:12:20;5.63;4.53;
62631;PMS5003;48703;51.248;-0.546;2022-12-20T03:15:21;5.60;4.54;
62631;PMS5003;48703;51.248;-0.546;2022-12-20T03:18:23;5.26;4.49;
62631;PMS5003;48703;51.248;-0.546;2022-12-20T03:21:24;5.01;3.87;
62631;PMS5003;48703;51.248;-0.546;2022-12-20T03:24:26;5.86;5.30;
62631;PMS5003;48703;51.248;-0.546;2022-12-20T03:27:27;6.36;5.61;
62631;PMS5003;48703;51.248;-0.546;2022-12-20T03:30:29;6.29;5.61;
62631;PMS5003;48703;51.248;-0.546;2022-12-20T03:33:30;6.36;5.44;
62631;PMS5003;48703;51.248;-0.546;2022-12-20T03:36:32;6.73;5.39;
62631;PMS5003;48703;51.248;-0.546;2022-12-20T03:39:33;6.20;5.57;
62631;PMS5003;48703;51.248;-0.546;2022-12-20T03:42:35;7.23;6.50;
62631;PMS5003;48703;51.248;-0.546;2022-12-20T03:45:36;7.01;5.86;
62631;PMS5003;48703;51.248;-0.546;2022-12-20T03:48:37;6.27;5.80;
62631;PMS5003;48703;51.248;-0.546;2022-12-20T03:51:39;6.39;5.61;
62631;PMS5003;48703;51.248;-0.546;2022-12-20T03:54:40;7.59;5.57;
62631;PMS5003;48703;51.248;-0.546;2022-12-20T03:57:42;7.67;6.64;
62631;PMS5003;48703;51.248;-0.546;2022-12-20T04:00:44;7.03;5.94;
62631;PMS5003;48703;51.248;-0.546;2022-12-20T04:03:45;7.56;5.71;
62631;PMS5003;48703;51.248;-0.546;2022-12-20T04:06:47;5.73;5.63;
62631;PMS5003;48703;51.248;-0.546;2022-12-20T04:09:48;5.64;5.11;
62631;PMS5003;48703;51.248;-0.546;2022-12-20T04:12:50;8.10;6.29;
62631;PMS5003;48703;51.248;-0.546;2022-12-20T04:15:51;5.94;5.50;
62631;PMS5003;48703;51.248;-0.546;2022-12-20T04:18:53;5.46;5.07;
62631;PMS5003;48703;51.248;-0.546;2022-12-20T04:21:54;7.00;6.80;
62631;PMS5003;48703;51.248;-0.546;2022-12-20T04:24:56;6.37;6.26;
62631;PMS5003;48703;51.248;-0.546;2022-12-20T04:27:57;6.88;6.42;
62631;PMS5003;48703;51.248;-0.546;2022-12-20T04:30:59;6.51;6.01;
62631;PMS5003;48703;51.248;-0.546;2022-12-20T04:34:00;7.29;6.21;
62631;PMS5003;48703;51.248;-0.546;2022-12-20T04:37:02;5.86;5.33;
62631;PMS5003;48703;51.248;-0.546;2022-12-20T04:40:04;8.17;6.50;
62631;PMS5003;48703;51.248;-0.546;2022-12-20T04:43:04;8.14;7.34;
62631;PMS5003;48703;51.248;-0.546;2022-12-20T04:46:06;8.67;6.97;
62631;PMS5003;48703;51.248;-0.546;2022-12-20T04:49:08;7.13;6.36;
62631;PMS5003;48703;51.248;-0.546;2022-12-20T04:52:09;8.30;6.16;
62631;PMS5003;48703;51.248;-0.546;2022-12-20T04:55:11;7.59;5.94;
62631;PMS5003;48703;51.248;-0.546;2022-12-20T04:58:12;6.57;6.10;
62631;PMS5003;48703;51.248;-0.546;2022-12-20T05:01:14;8.69;6.29;
62631;PMS5003;48703;51.248;-0.546;2022-12-20T05:04:15;7.31;5.99;
62631;PMS5003;48703;51.248;-0.546;2022-12-20T05:07:17;9.59;7.23;
62631;PMS5003;48703;51.248;-0.546;2022-12-20T05:10:18;6.74;6.01;
62631;PMS5003;48703;51.248;-0.546;2022-12-20T05:13:20;5.34;4.74;
62631;PMS5003;48703;51.248;-0.546;2022-12-20T05:16:22;4.61;4.61;
62631;PMS5003;48703;51.248;-0.546;2022-12-20T05:19:23;5.90;5.56;
62631;PMS5003;48703;51.248;-0.546;2022-12-20T05:22:25;5.54;5.00;
62631;PMS5003;48703;51.248;-0.546;2022-12-20T05:25:26;4.24;3.94;
62631;PMS5003;48703;51.248;-0.546;2022-12-20T05:28:28;4.14;3.69;
62631;PMS5003;48703;51.248;-0.546;2022-12-20T05:31:29;4.66;3.24;
62631;PMS5003;48703;51.248;-0.546;2022-12-20T05:34:31;6.53;4.79;
62631;PMS5003;48703;51.248;-0.546;2022-12-20T05:37:32;5.16;4.49;
62631;PMS5003;48703;51.248;-0.546;2022-12-20T05:40:34;5.64;5.41;
62631;PMS5003;48703;51.248;-0.546;2022-12-20T05:43:35;4.83;4.14;
62631;PMS5003;48703;51.248;-0.546;2022-12-20T05:46:37;5.26;4.93;
62631;PMS5003;48703;51.248;-0.546;2022-12-20T05:49:38;4.99;4.19;
62631;PMS5003;48703;51.248;-0.546;2022-12-20T05:52:40;6.45;5.23;
62631;PMS5003;48703;51.248;-0.546;2022-12-20T05:55:42;5.16;4.34;
62631;PMS5003;48703;51.248;-0.546;2022-12-20T05:58:43;4.03;4.03;
62631;PMS5003;48703;51.248;-0.546;2022-12-20T06:01:44;7.16;4.96;
62631;PMS5003;48703;51.248;-0.546;2022-12-20T06:04:46;4.61;4.17;
62631;PMS5003;48703;51.248;-0.546;2022-12-20T06:07:47;4.53;3.53;
62631;PMS5003;48703;51.248;-0.546;2022-12-20T06:10:49;5.11;3.70;
62631;PMS5003;48703;51.248;-0.546;2022-12-20T06:13:51;5.70;4.63;
62631;PMS5003;48703;51.248;-0.546;2022-12-20T06:16:52;3.41;3.27;
62631;PMS5003;48703;51.248;-0.546;2022-12-20T06:19:54;4.63;3.69;
62631;PMS5003;48703;51.248;-0.546;2022-12-20T06:22:55;4.96;3.49;
62631;PMS5003;48703;51.248;-0.546;2022-12-20T06:25:57;2.30;1.43;
62631;PMS5003;48703;51.248;-0.546;2022-12-20T06:28:58;0.53;0.39;
62631;PMS5003;48703;51.248;-0.546;2022-12-20T06:32:00;0.07;0.07;
62631;PMS5003;48703;51.248;-0.546;2022-12-20T06:35:02;0.36;0.36;
62631;PMS5003;48703;51.248;-0.546;2022-12-20T06:38:03;0.37;0.37;
62631;PMS5003;48703;51.248;-0.546;2022-12-20T06:41:05;0.43;0.00;
62631;PMS5003;48703;51.248;-0.546;2022-12-20T06:44:06;0.00;0.00;
62631;PMS5003;48703;51.248;-0.546;2022-12-20T06:47:08;0.00;0.00;
62631;PMS5003;48703;51.248;-0.546;2022-12-20T06:50:09;0.00;0.00;
62631;PMS5003;48703;51.248;-0.546;2022-12-20T06:53:11;0.00;0.00;
62631;PMS5003;48703;51.248;-0.546;2022-12-20T06:56:12;0.53;0.53;
62631;PMS5003;48703;51.248;-0.546;2022-12-20T06:59:14;0.83;0.10;
62631;PMS5003;48703;51.248;-0.546;2022-12-20T07:02:15;0.14;0.06;
62631;PMS5003;48703;51.248;-0.546;2022-12-20T07:05:17;0.00;0.00;
62631;PMS5003;48703;51.248;-0.546;2022-12-20T07:08:19;0.21;0.21;
62631;PMS5003;48703;51.248;-0.546;2022-12-20T07:11:20;0.67;0.29;
62631;PMS5003;48703;51.248;-0.546;2022-12-20T07:14:22;1.61;0.46;
62631;PMS5003;48703;51.248;-0.546;2022-12-20T07:17:23;0.53;0.53;
62631;PMS5003;48703;51.248;-0.546;2022-12-20T07:20:25;0.00;0.00;
62631;PMS5003;48703;51.248;-0.546;2022-12-20T07:23:27;0.06;0.06;
62631;PMS5003;48703;51.248;-0.546;2022-12-20T07:26:28;0.60;0.43;
62631;PMS5003;48703;51.248;-0.546;2022-12-20T07:29:30;0.30;0.00;
62631;PMS5003;48703;51.248;-0.546;2022-12-20T07:32:31;0.03;0.03;
62631;PMS5003;48703;51.248;-0.546;2022-12-20T07:35:33;0.00;0.00;
62631;PMS5003;48703;51.248;-0.546;2022-12-20T07:38:34;0.00;0.00;
62631;PMS5003;48703;51.248;-0.546;2022-12-20T07:41:36;0.00;0.00;
62631;PMS5003;48703;51.248;-0.546;2022-12-20T07:44:37;0.00;0.00;
62631;PMS5003;48703;51.248;-0.546;2022-12-20T07:47:39;0.51;0.09;
62631;PMS5003;48703;51.248;-0.546;2022-12-20T07:50:41;0.00;0.00;
62631;PMS5003;48703;51.248;-0.546;2022-12-20T07:53:43;0.24;0.24;
62631;PMS5003;48703;51.248;-0.546;2022-12-20T07:56:44;0.31;0.00;
62631;PMS5003;48703;51.248;-0.546;2022-12-20T07:59:46;0.00;0.00;
62631;PMS5003;48703;51.248;-0.546;2022-12-20T08:02:47;0.00;0.00;
62631;PMS5003;48703;51.248;-0.546;2022-12-20T08:05:50;1.07;0.26;
62631;PMS5003;48703;51.248;-0.546;2022-12-20T08:08:51;0.00;0.00;
62631;PMS5003;48703;51.248;-0.546;2022-12-20T08:11:52;0.39;0.39;
62631;PMS5003;48703;51.248;-0.546;2022-12-20T08:14:53;0.33;0.33;
62631;PMS5003;48703;51.248;-0.546;2022-12-20T08:17:55;0.39;0.39;
62631;PMS5003;48703;51.248;-0.546;2022-12-20T08:20:57;0.09;0.09;
62631;PMS5003;48703;51.248;-0.546;2022-12-20T08:23:58;0.00;0.00;
62631;PMS5003;48703;51.248;-0.546;2022-12-20T08:27:00;0.00;0.00;
62631;PMS5003;48703;51.248;-0.546;2022-12-20T08:30:01;0.30;0.00;
62631;PMS5003;48703;51.248;-0.546;2022-12-20T08:33:03;0.36;0.36;
62631;PMS5003;48703;51.248;-0.546;2022-12-20T08:36:06;0.79;0.39;
62631;PMS5003;48703;51.248;-0.546;2022-12-20T08:39:06;0.67;0.54;
62631;PMS5003;48703;51.248;-0.546;2022-12-20T08:42:08;0.13;0.13;
62631;PMS5003;48703;51.248;-0.546;2022-12-20T08:45:09;0.89;0.10;
62631;PMS5003;48703;51.248;-0.546;2022-12-20T08:48:11;0.70;0.30;
62631;PMS5003;48703;51.248;-0.546;2022-12-20T08:51:13;0.56;0.56;
62631;PMS5003;48703;51.248;-0.546;2022-12-20T08:54:14;0.34;0.34;
62631;PMS5003;48703;51.248;-0.546;2022-12-20T08:57:16;0.09;0.09;
62631;PMS5003;48703;51.248;-0.546;2022-12-20T09:00:18;0.27;0.27;
62631;PMS5003;48703;51.248;-0.546;2022-12-20T09:03:19;0.27;0.27;
62631;PMS5003;48703;51.248;-0.546;2022-12-20T09:06:21;0.86;0.26;
62631;PMS5003;48703;51.248;-0.546;2022-12-20T09:09:22;0.06;0.06;
62631;PMS5003;48703;51.248;-0.546;2022-12-20T09:12:24;0.21;0.21;
62631;PMS5003;48703;51.248;-0.546;2022-12-20T09:15:26;0.00;0.00;
62631;PMS5003;48703;51.248;-0.546;2022-12-20T09:18:27;0.43;0.43;
62631;PMS5003;48703;51.248;-0.546;2022-12-20T09:21:29;0.27;0.00;
62631;PMS5003;48703;51.248;-0.546;2022-12-20T09:24:31;0.29;0.29;
62631;PMS5003;48703;51.248;-0.546;2022-12-20T09:27:32;1.14;0.29;
62631;PMS5003;48703;51.248;-0.546;2022-12-20T09:30:34;0.69;0.47;
62631;PMS5003;48703;51.248;-0.546;2022-12-20T09:33:35;1.81;1.00;
62631;PMS5003;48703;51.248;-0.546;2022-12-20T09:36:37;0.84;0.84;
62631;PMS5003;48703;51.248;-0.546;2022-12-20T09:39:39;0.10;0.00;
62631;PMS5003;48703;51.248;-0.546;2022-12-20T09:42:40;4.83;4.83;
62631;PMS5003;48703;51.248;-0.546;2022-12-20T09:45:42;4.37;4.37;
62631;PMS5003;48703;51.248;-0.546;2022-12-20T09:48:44;2.56;2.21;
62631;PMS5003;48703;51.248;-0.546;2022-12-20T09:51:51;0.04;0.04;
62631;PMS5003;48703;51.248;-0.546;2022-12-20T09:54:49;1.54;0.33;
62631;PMS5003;48703;51.248;-0.546;2022-12-20T09:57:52;0.81;0.47;
62631;PMS5003;48703;51.248;-0.546;2022-12-20T10:00:50;10.38;8.28;
62631;PMS5003;48703;51.248;-0.546;2022-12-20T10:03:51;4.74;3.46;
62631;PMS5003;48703;51.248;-0.546;2022-12-20T10:06:56;1.36;0.94;
62631;PMS5003;48703;51.248;-0.546;2022-12-20T10:10:00;1.10;0.40;
62631;PMS5003;48703;51.248;-0.546;2022-12-20T10:12:58;0.83;0.31;
62631;PMS5003;48703;51.248;-0.546;2022-12-20T10:15:59;1.54;0.64;
62631;PMS5003;48703;51.248;-0.546;2022-12-20T10:19:02;0.74;0.74;
62631;PMS5003;48703;51.248;-0.546;2022-12-20T10:22:03;0.36;0.36;
62631;PMS5003;48703;51.248;-0.546;2022-12-20T10:25:10;0.50;0.50;
62631;PMS5003;48703;51.248;-0.546;2022-12-20T10:28:08;1.93;1.37;
62631;PMS5003;48703;51.248;-0.546;2022-12-20T10:31:06;1.36;1.03;
62631;PMS5003;48703;51.248;-0.546;2022-12-20T10:34:07;1.09;0.87;
62631;PMS5003;48703;51.248;-0.546;2022-12-20T10:37:09;1.34;1.20;
62631;PMS5003;48703;51.248;-0.546;2022-12-20T10:40:13;1.59;1.09;
62631;PMS5003;48703;51.248;-0.546;2022-12-20T10:43:14;1.71;1.71;
62631;PMS5003;48703;51.248;-0.546;2022-12-20T10:46:14;1.36;1.36;
62631;PMS5003;48703;51.248;-0.546;2022-12-20T10:49:32;1.96;1.96;
62631;PMS5003;48703;51.248;-0.546;2022-12-20T10:52:17;2.54;2.20;
62631;PMS5003;48703;51.248;-0.546;2022-12-20T10:55:31;3.20;2.39;
62631;PMS5003;48703;51.248;-0.546;2022-12-20T10:58:27;4.13;2.54;
62631;PMS5003;48703;51.248;-0.546;2022-12-20T11:01:23;2.40;2.40;
62631;PMS5003;48703;51.248;-0.546;2022-12-20T11:04:25;3.81;2.77;
62631;PMS5003;48703;51.248;-0.546;2022-12-20T11:07:26;2.60;1.70;
62631;PMS5003;48703;51.248;-0.546;2022-12-20T11:10:28;3.39;2.10;
62631;PMS5003;48703;51.248;-0.546;2022-12-20T11:13:28;2.31;1.91;
62631;PMS5003;48703;51.248;-0.546;2022-12-20T11:16:33;2.53;2.27;
62631;PMS5003;48703;51.248;-0.546;2022-12-20T11:19:36;2.09;1.14;
62631;PMS5003;48703;51.248;-0.546;2022-12-20T11:22:38;2.24;1.77;
62631;PMS5003;48703;51.248;-0.546;2022-12-20T11:25:38;2.73;1.61;
62631;PMS5003;48703;51.248;-0.546;2022-12-20T11:28:42;2.44;1.67;
62631;PMS5003;48703;51.248;-0.546;2022-12-20T11:31:41;1.77;1.77;
62631;PMS5003;48703;51.248;-0.546;2022-12-20T11:34:42;3.10;2.56;
62631;PMS5003;48703;51.248;-0.546;2022-12-20T11:37:43;2.56;2.11;
62631;PMS5003;48703;51.248;-0.546;2022-12-20T11:40:45;5.26;4.31;
62631;PMS5003;48703;51.248;-0.546;2022-12-20T11:43:50;5.86;4.14;
62631;PMS5003;48703;51.248;-0.546;2022-12-20T11:46:51;4.44;4.27;
62631;PMS5003;48703;51.248;-0.546;2022-12-20T11:49:52;4.46;3.51;
62631;PMS5003;48703;51.248;-0.546;2022-12-20T11:52:50;3.87;2.76;
62631;PMS5003;48703;51.248;-0.546;2022-12-20T11:55:52;3.91;2.31;
62631;PMS5003;48703;51.248;-0.546;2022-12-20T11:58:54;3.16;2.56;
62631;PMS5003;48703;51.248;-0.546;2022-12-20T12:01:55;2.36;1.73;
62631;PMS5003;48703;51.248;-0.546;2022-12-20T12:04:57;3.41;2.16;
62631;PMS5003;48703;51.248;-0.546;2022-12-20T12:07:58;2.44;2.04;
62631;PMS5003;48703;51.248;-0.546;2022-12-20T12:11:00;3.10;2.61;
62631;PMS5003;48703;51.248;-0.546;2022-12-20T12:14:01;3.46;2.23;
62631;PMS5003;48703;51.248;-0.546;2022-12-20T12:17:05;2.63;1.61;
62631;PMS5003;48703;51.248;-0.546;2022-12-20T12:20:13;3.24;2.23;
62631;PMS5003;48703;51.248;-0.546;2022-12-20T12:23:09;2.76;1.79;
62631;PMS5003;48703;51.248;-0.546;2022-12-20T12:26:09;3.94;2.74;
62631;PMS5003;48703;51.248;-0.546;2022-12-20T12:29:10;3.71;2.24;
62631;PMS5003;48703;51.248;-0.546;2022-12-20T12:32:13;3.53;1.93;
62631;PMS5003;48703;51.248;-0.546;2022-12-20T12:35:17;3.44;1.81;
62631;PMS5003;48703;51.248;-0.546;2022-12-20T12:38:15;3.66;2.29;
62631;PMS5003;48703;51.248;-0.546;2022-12-20T12:41:21;3.30;3.19;
62631;PMS5003;48703;51.248;-0.546;2022-12-20T12:44:22;5.56;3.63;
62631;PMS5003;48703;51.248;-0.546;2022-12-20T12:47:20;4.60;2.51;
62631;PMS5003;48703;51.248;-0.546;2022-12-20T12:50:22;3.93;2.87;
62631;PMS5003;48703;51.248;-0.546;2022-12-20T12:53:23;1.86;1.74;
62631;PMS5003;48703;51.248;-0.546;2022-12-20T12:56:39;3.20;3.01;
62631;PMS5003;48703;51.248;-0.546;2022-12-20T12:59:41;5.88;4.10;
62631;PMS5003;48703;51.248;-0.546;2022-12-20T13:02:32;7.21;4.00;
62631;PMS5003;48703;51.248;-0.546;2022-12-20T13:05:29;6.54;4.80;
62631;PMS5003;48703;51.248;-0.546;2022-12-20T13:08:45;3.80;3.34;
62631;PMS5003;48703;51.248;-0.546;2022-12-20T13:11:32;5.20;4.00;
62631;PMS5003;48703;51.248;-0.546;2022-12-20T13:14:48;5.41;4.31;
62631;PMS5003;48703;51.248;-0.546;2022-12-20T13:17:45;5.29;3.67;
62631;PMS5003;48703;51.248;-0.546;2022-12-20T13:20:36;5.30;3.47;
62631;PMS5003;48703;51.248;-0.546;2022-12-20T13:23:37;5.86;3.87;
62631;PMS5003;48703;51.248;-0.546;2022-12-20T13:26:48;5.37;4.53;
62631;PMS5003;48703;51.248;-0.546;2022-12-20T13:29:50;5.39;4.70;
62631;PMS5003;48703;51.248;-0.546;2022-12-20T13:32:55;7.23;4.80;
62631;PMS5003;48703;51.248;-0.546;2022-12-20T13:35:47;5.93;4.16;
62631;PMS5003;48703;51.248;-0.546;2022-12-20T13:38:50;6.76;5.23;
62631;PMS5003;48703;51.248;-0.546;2022-12-20T13:41:47;7.79;5.73;
62631;PMS5003;48703;51.248;-0.546;2022-12-20T13:44:48;6.74;5.84;
62631;PMS5003;48703;51.248;-0.546;2022-12-20T13:47:51;7.62;5.45;
62631;PMS5003;48703;51.248;-0.546;2022-12-20T13:50:51;5.03;4.26;
62631;PMS5003;48703;51.248;-0.546;2022-12-20T13:53:53;4.83;4.23;
62631;PMS5003;48703;51.248;-0.546;2022-12-20T13:56:54;4.23;3.47;
62631;PMS5003;48703;51.248;-0.546;2022-12-20T13:59:56;6.53;4.21;
62631;PMS5003;48703;51.248;-0.546;2022-12-20T14:02:57;3.96;3.26;
62631;PMS5003;48703;51.248;-0.546;2022-12-20T14:06:00;5.50;3.99;
62631;PMS5003;48703;51.248;-0.546;2022-12-20T14:09:00;3.80;3.13;
62631;PMS5003;48703;51.248;-0.546;2022-12-20T14:12:03;5.97;3.03;
62631;PMS5003;48703;51.248;-0.546;2022-12-20T14:15:17;4.83;3.71;
62631;PMS5003;48703;51.248;-0.546;2022-12-20T14:18:05;3.20;2.90;
62631;PMS5003;48703;51.248;-0.546;2022-12-20T14:21:06;6.93;4.13;
62631;PMS5003;48703;51.248;-0.546;2022-12-20T14:24:08;5.29;3.80;
62631;PMS5003;48703;51.248;-0.546;2022-12-20T14:27:10;5.34;5.11;
62631;PMS5003;48703;51.248;-0.546;2022-12-20T14:30:29;5.33;4.09;
62631;PMS5003;48703;51.248;-0.546;2022-12-20T14:33:16;6.64;5.54;
62631;PMS5003;48703;51.248;-0.546;2022-12-20T14:36:16;8.10;6.09;
62631;PMS5003;48703;51.248;-0.546;2022-12-20T14:39:24;7.23;4.84;
62631;PMS5003;48703;51.248;-0.546;2022-12-20T14:42:18;4.87;3.79;
62631;PMS5003;48703;51.248;-0.546;2022-12-20T14:45:21;8.10;4.07;
62631;PMS5003;48703;51.248;-0.546;2022-12-20T14:48:21;5.40;3.31;
62631;PMS5003;48703;51.248;-0.546;2022-12-20T14:51:22;4.24;3.70;
62631;PMS5003;48703;51.248;-0.546;2022-12-20T14:54:24;3.70;2.91;
62631;PMS5003;48703;51.248;-0.546;2022-12-20T14:57:26;5.63;2.80;
62631;PMS5003;48703;51.248;-0.546;2022-12-20T15:00:28;2.99;2.13;
62631;PMS5003;48703;51.248;-0.546;2022-12-20T15:03:29;4.99;2.71;
62631;PMS5003;48703;51.248;-0.546;2022-12-20T15:06:31;4.20;3.10;
62631;PMS5003;48703;51.248;-0.546;2022-12-20T15:09:32;3.71;2.86;
62631;PMS5003;48703;51.248;-0.546;2022-12-20T15:12:33;4.83;3.39;
62631;PMS5003;48703;51.248;-0.546;2022-12-20T15:15:35;4.83;3.47;
62631;PMS5003;48703;51.248;-0.546;2022-12-20T15:18:37;4.69;2.61;
62631;PMS5003;48703;51.248;-0.546;2022-12-20T15:21:39;2.54;2.46;
62631;PMS5003;48703;51.248;-0.546;2022-12-20T15:24:40;3.10;2.53;
62631;PMS5003;48703;51.248;-0.546;2022-12-20T15:27:42;6.33;3.17;
62631;PMS5003;48703;51.248;-0.546;2022-12-20T15:30:43;5.16;3.90;
62631;PMS5003;48703;51.248;-0.546;2022-12-20T15:33:45;5.29;3.46;
62631;PMS5003;48703;51.248;-0.546;2022-12-20T15:36:47;5.94;4.14;
62631;PMS5003;48703;51.248;-0.546;2022-12-20T15:39:48;6.28;4.96;
62631;PMS5003;48703;51.248;-0.546;2022-12-20T15:42:50;4.13;3.24;
62631;PMS5003;48703;51.248;-0.546;2022-12-20T15:45:52;5.63;4.17;
62631;PMS5003;48703;51.248;-0.546;2022-12-20T15:48:53;3.76;3.49;
62631;PMS5003;48703;51.248;-0.546;2022-12-20T15:51:55;3.86;3.20;
62631;PMS5003;48703;51.248;-0.546;2022-12-20T15:54:56;4.24;3.44;
62631;PMS5003;48703;51.248;-0.546;2022-12-20T15:57:58;4.93;3.40;
62631;PMS5003;48703;51.248;-0.546;2022-12-20T16:01:00;5.59;4.19;
62631;PMS5003;48703;51.248;-0.546;2022-12-20T16:04:01;3.50;2.54;
62631;PMS5003;48703;51.248;-0.546;2022-12-20T16:07:04;3.71;2.74;
62631;PMS5003;48703;51.248;-0.546;2022-12-20T16:10:05;3.66;2.64;
62631;PMS5003;48703;51.248;-0.546;2022-12-20T16:13:08;3.74;3.54;
62631;PMS5003;48703;51.248;-0.546;2022-12-20T16:16:08;5.53;3.64;
62631;PMS5003;48703;51.248;-0.546;2022-12-20T16:19:09;4.63;3.00;
62631;PMS5003;48703;51.248;-0.546;2022-12-20T16:22:13;5.03;3.30;
62631;PMS5003;48703;51.248;-0.546;2022-12-20T16:25:19;6.57;5.33;
62631;PMS5003;48703;51.248;-0.546;2022-12-20T16:28:14;3.56;3.30;
62631;PMS5003;48703;51.248;-0.546;2022-12-20T16:31:18;5.00;4.56;
62631;PMS5003;48703;51.248;-0.546;2022-12-20T16:34:17;7.64;5.90;
62631;PMS5003;48703;51.248;-0.546;2022-12-20T16:37:19;7.86;5.20;
62631;PMS5003;48703;51.248;-0.546;2022-12-20T16:40:21;5.63;3.99;
62631;PMS5003;48703;51.248;-0.546;2022-12-20T16:43:22;5.76;5.31;
62631;PMS5003;48703;51.248;-0.546;2022-12-20T16:46:24;6.41;5.03;
62631;PMS5003;48703;51.248;-0.546;2022-12-20T16:49:26;6.71;5.76;
62631;PMS5003;48703;51.248;-0.546;2022-12-20T16:52:27;6.29;4.51;
62631;PMS5003;48703;51.248;-0.546;2022-12-20T16:55:29;7.47;6.54;
62631;PMS5003;48703;51.248;-0.546;2022-12-20T16:58:30;8.49;7.09;
62631;PMS5003;48703;51.248;-0.546;2022-12-20T17:01:33;7.53;5.87;
62631;PMS5003;48703;51.248;-0.546;2022-12-20T17:04:34;6.34;5.73;
62631;PMS5003;48703;51.248;-0.546;2022-12-20T17:07:35;7.49;6.84;
62631;PMS5003;48703;51.248;-0.546;2022-12-20T17:10:36;7.20;6.19;
62631;PMS5003;48703;51.248;-0.546;2022-12-20T17:13:38;7.55;7.14;
62631;PMS5003;48703;51.248;-0.546;2022-12-20T17:16:39;7.31;6.59;
62631;PMS5003;48703;51.248;-0.546;2022-12-20T17:19:41;5.24;4.51;
62631;PMS5003;48703;51.248;-0.546;2022-12-20T17:22:42;5.36;4.54;
62631;PMS5003;48703;51.248;-0.546;2022-12-20T17:25:44;6.04;5.19;
62631;PMS5003;48703;51.248;-0.546;2022-12-20T17:28:46;6.34;5.43;
62631;PMS5003;48703;51.248;-0.546;2022-12-20T17:31:47;8.39;6.43;
62631;PMS5003;48703;51.248;-0.546;2022-12-20T17:34:49;9.51;7.80;
62631;PMS5003;48703;51.248;-0.546;2022-12-20T17:37:50;6.84;5.41;
62631;PMS5003;48703;51.248;-0.546;2022-12-20T17:40:52;8.81;8.54;
62631;PMS5003;48703;51.248;-0.546;2022-12-20T17:43:53;10.61;7.71;
62631;PMS5003;48703;51.248;-0.546;2022-12-20T17:46:55;9.46;7.27;
62631;PMS5003;48703;51.248;-0.546;2022-12-20T17:49:57;9.43;9.26;
62631;PMS5003;48703;51.248;-0.546;2022-12-20T17:52:58;9.34;7.61;
62631;PMS5003;48703;51.248;-0.546;2022-12-20T17:55:59;9.99;8.63;
62631;PMS5003;48703;51.248;-0.546;2022-12-20T17:59:02;10.41;9.36;
62631;PMS5003;48703;51.248;-0.546;2022-12-20T18:02:04;10.96;8.41;
62631;PMS5003;48703;51.248;-0.546;2022-12-20T18:05:04;11.62;9.29;
62631;PMS5003;48703;51.248;-0.546;2022-12-20T18:08:07;11.09;9.04;
62631;PMS5003;48703;51.248;-0.546;2022-12-20T18:11:06;9.67;9.14;
62631;PMS5003;48703;51.248;-0.546;2022-12-20T18:14:08;8.79;7.29;
62631;PMS5003;48703;51.248;-0.546;2022-12-20T18:17:09;9.21;8.57;
62631;PMS5003;48703;51.248;-0.546;2022-12-20T18:20:12;12.21;9.17;
62631;PMS5003;48703;51.248;-0.546;2022-12-20T18:23:13;8.30;6.89;
62631;PMS5003;48703;51.248;-0.546;2022-12-20T18:26:16;9.66;8.20;
62631;PMS5003;48703;51.248;-0.546;2022-12-20T18:29:16;12.06;9.68;
62631;PMS5003;48703;51.248;-0.546;2022-12-20T18:32:18;9.86;8.66;